Time;durP1;ratioP1;P1;durP2;ratioP2;P2;SDS_P1;SDS_P2;PMS_P1;PMS_P2;Temp;Humidity;BMP_temperature;BMP_pressure;BME280_temperature;BME280_humidity;BME280_pressure;Samples;Min_cycle;Max_cycle;Signal;HPM_P1;HPM_P2
2024/04/12 00:01:49;;;;;;;6.07;3.97;;;14.20;99.90;;;;;;5436125;26;20509;-73
2024/04/12 00:04:20;;;;;;;6.87;4.37;;;14.20;99.90;;;;;;5394569;26;20471;-70
2024/04/12 00:06:52;;;;;;;7.20;4.37;;;14.20;99.90;;;;;;5435489;26;20804;-71
2024/04/12 00:09:18;;;;;;;5.73;4.57;;;14.20;99.90;;;;;;5435919;26;20467;-68
2024/04/12 00:11:44;;;;;;;7.40;4.50;;;14.20;99.90;;;;;;5431326;26;20474;-71
2024/04/12 00:14:12;;;;;;;6.37;4.87;;;14.20;99.90;;;;;;5436704;26;20890;-74
2024/04/12 00:16:43;;;;;;;5.43;4.13;;;14.20;99.90;;;;;;5434191;26;20471;-73
2024/04/12 00:19:12;;;;;;;5.40;4.90;;;14.20;99.90;;;;;;5435062;26;20440;-69
2024/04/12 00:21:41;;;;;;;6.53;4.50;;;14.20;99.90;;;;;;5435399;26;20467;-74
2024/04/12 00:24:11;;;;;;;5.83;4.70;;;14.20;99.90;;;;;;5437080;26;20521;-73
2024/04/12 00:26:45;;;;;;;5.93;4.40;;;14.30;99.90;;;;;;5434615;26;20463;-71
2024/04/12 00:32:03;;;;;;;5.30;4.43;;;14.30;99.90;;;;;;5432587;26;20467;-77
2024/04/12 00:34:38;;;;;;;4.97;4.17;;;14.30;99.90;;;;;;5435961;26;21109;-71
2024/04/12 00:37:08;;;;;;;7.93;4.77;;;14.30;99.90;;;;;;5433912;26;21060;-75
2024/04/12 00:39:35;;;;;;;7.37;4.60;;;14.30;99.90;;;;;;5433643;26;20510;-72
2024/04/12 00:42:07;;;;;;;6.40;4.80;;;14.30;99.90;;;;;;5434796;26;20518;-73
2024/04/12 00:44:36;;;;;;;9.10;4.53;;;14.30;99.90;;;;;;5435808;26;20786;-74
2024/04/12 00:47:07;;;;;;;6.07;4.47;;;14.30;99.90;;;;;;5435542;26;21064;-71
2024/04/12 00:49:36;;;;;;;7.10;4.47;;;14.30;99.90;;;;;;5436475;26;21225;-73
2024/04/12 00:52:02;;;;;;;5.53;4.20;;;14.30;99.90;;;;;;5434410;26;20520;-74
2024/04/12 00:54:29;;;;;;;5.87;4.17;;;14.30;99.90;;;;;;5435164;26;20550;-71
2024/04/12 00:56:58;;;;;;;6.00;4.50;;;14.30;99.90;;;;;;5433651;26;20554;-73
2024/04/12 00:59:24;;;;;;;4.93;4.10;;;14.30;99.90;;;;;;5403955;26;20499;-70
2024/04/12 01:01:52;;;;;;;6.33;4.10;;;14.30;99.90;;;;;;5401179;26;20549;-71
2024/04/12 01:04:20;;;;;;;7.40;5.03;;;14.30;99.90;;;;;;5436480;26;20281;-78
2024/04/12 01:06:46;;;;;;;8.70;5.10;;;14.40;99.90;;;;;;5431315;26;20520;-72
2024/04/12 01:09:12;;;;;;;6.20;4.60;;;14.40;99.90;;;;;;5435537;26;20467;-74
2024/04/12 01:11:38;;;;;;;5.53;4.60;;;14.40;99.90;;;;;;5435104;26;20507;-71
2024/04/12 01:14:10;;;;;;;4.87;4.37;;;14.40;99.90;;;;;;5393371;26;20459;-73
2024/04/12 01:16:38;;;;;;;6.40;4.33;;;14.40;99.90;;;;;;5403361;26;20459;-73
2024/04/12 01:19:12;;;;;;;5.10;4.47;;;14.40;99.90;;;;;;5434987;26;20463;-74
2024/04/12 01:21:38;;;;;;;6.70;4.63;;;14.40;99.90;;;;;;5433215;26;20524;-73
2024/04/12 01:24:06;;;;;;;5.90;4.97;;;14.40;99.90;;;;;;5434608;26;20495;-68
2024/04/12 01:26:32;;;;;;;10.30;4.77;;;14.30;99.90;;;;;;5435219;26;21341;-71
2024/04/12 01:28:58;;;;;;;6.17;4.67;;;14.30;99.90;;;;;;5433071;26;20562;-72
2024/04/12 01:31:27;;;;;;;5.47;4.50;;;14.30;99.90;;;;;;5435928;26;20466;-71
2024/04/12 01:33:53;;;;;;;5.63;4.60;;;14.30;99.90;;;;;;5431243;26;20471;-76
2024/04/12 01:36:21;;;;;;;10.90;4.53;;;14.30;99.90;;;;;;5436681;26;20463;-71
2024/04/12 01:38:56;;;;;;;7.60;5.13;;;14.30;99.90;;;;;;5431330;26;20530;-74
2024/04/12 01:41:23;;;;;;;6.67;4.20;;;14.30;99.90;;;;;;5433745;26;20455;-70
2024/04/12 01:43:52;;;;;;;5.73;5.17;;;14.30;99.90;;;;;;5432986;26;20447;-72
2024/04/12 01:46:27;;;;;;;4.80;4.20;;;14.30;99.90;;;;;;5391460;26;20967;-77
2024/04/12 01:48:57;;;;;;;6.30;4.67;;;14.30;99.90;;;;;;5433258;26;21159;-72
2024/04/12 01:51:25;;;;;;;5.43;4.43;;;14.30;99.90;;;;;;5431841;26;21123;-77
2024/04/12 01:53:54;;;;;;;10.23;4.60;;;14.30;99.90;;;;;;5430130;26;20503;-72
2024/04/12 01:56:22;;;;;;;6.23;4.53;;;14.30;99.90;;;;;;5434323;26;20567;-73
2024/04/12 01:58:48;;;;;;;7.97;4.50;;;14.30;99.90;;;;;;5431022;26;20444;-70
2024/04/12 02:01:16;;;;;;;4.97;4.47;;;14.30;99.90;;;;;;5434566;26;20447;-74
2024/04/12 02:03:44;;;;;;;6.30;4.17;;;14.40;99.90;;;;;;5429815;26;20576;-71
2024/04/12 02:06:15;;;;;;;6.17;4.00;;;14.40;99.90;;;;;;5431909;26;21059;-69
2024/04/12 02:08:42;;;;;;;5.53;3.90;;;14.40;99.90;;;;;;5430172;26;20463;-73
2024/04/12 02:11:08;;;;;;;5.03;4.20;;;14.40;99.90;;;;;;5433833;26;20456;-70
2024/04/12 02:13:36;;;;;;;7.00;5.50;;;14.40;99.90;;;;;;5434584;26;20455;-71
2024/04/12 02:16:04;;;;;;;4.50;3.80;;;14.30;99.90;;;;;;5390681;26;20463;-76
2024/04/12 02:18:34;;;;;;;4.57;3.83;;;14.40;99.90;;;;;;5399556;26;20448;-73
2024/04/12 02:21:05;;;;;;;4.70;3.43;;;14.40;99.90;;;;;;5431027;26;20513;-69
2024/04/12 02:23:37;;;;;;;4.23;3.20;;;14.40;99.90;;;;;;5433489;26;21008;-69
2024/04/12 02:26:04;;;;;;;3.53;3.20;;;14.40;99.90;;;;;;5432709;26;20455;-72
2024/04/12 02:28:34;;;;;;;3.80;3.10;;;14.50;99.90;;;;;;5433054;26;20850;-71
2024/04/12 02:31:08;;;;;;;3.90;3.40;;;14.40;99.90;;;;;;5398862;26;20490;-74
2024/04/12 02:33:35;;;;;;;4.43;3.30;;;14.40;99.90;;;;;;5432589;26;20618;-72
2024/04/12 02:36:18;;;;;;;4.23;2.97;;;14.40;99.90;;;;;;5431283;26;20455;-69
2024/04/12 02:38:49;;;;;;;4.10;3.07;;;14.40;99.90;;;;;;5430478;26;20444;-77
2024/04/12 02:41:16;;;;;;;5.83;3.47;;;14.40;99.90;;;;;;5433687;26;20447;-72
2024/04/12 02:43:51;;;;;;;3.93;3.53;;;14.50;99.90;;;;;;5429168;26;20472;-71
2024/04/12 02:46:18;;;;;;;3.73;3.20;;;14.40;99.90;;;;;;5431883;26;21075;-71
2024/04/12 02:48:44;;;;;;;3.90;2.87;;;14.40;99.90;;;;;;5430572;26;20846;-78
2024/04/12 02:51:13;;;;;;;3.40;2.60;;;14.40;99.90;;;;;;5432378;26;20457;-75
2024/04/12 02:53:41;;;;;;;4.73;3.63;;;14.40;99.90;;;;;;5430638;26;20290;-69
2024/04/12 02:56:12;;;;;;;3.33;3.03;;;14.40;99.90;;;;;;5390692;26;20529;-72
2024/04/12 02:58:44;;;;;;;4.43;3.07;;;14.40;99.90;;;;;;5431498;26;21422;-70
2024/04/12 03:01:11;;;;;;;3.10;2.80;;;14.40;99.90;;;;;;5431612;26;20448;-75
2024/04/12 03:03:45;;;;;;;3.83;2.80;;;14.40;99.90;;;;;;5432241;26;20463;-74
2024/04/12 03:06:23;;;;;;;3.67;2.80;;;14.50;99.90;;;;;;5431635;26;20581;-75
2024/04/12 03:08:51;;;;;;;3.60;2.63;;;14.50;99.90;;;;;;5419884;26;20467;-74
2024/04/12 03:11:33;;;;;;;3.60;3.20;;;14.50;99.90;;;;;;5429127;26;20467;-72
2024/04/12 03:14:04;;;;;;;2.90;2.60;;;14.50;99.90;;;;;;5431966;26;21055;-71
2024/04/12 03:16:34;;;;;;;3.20;2.47;;;14.40;99.90;;;;;;5434520;26;20507;-73
2024/04/12 03:19:01;;;;;;;3.10;2.80;;;14.50;99.90;;;;;;5432169;26;20458;-73
2024/04/12 03:21:27;;;;;;;2.60;2.40;;;14.50;99.90;;;;;;5393855;26;20520;-72
2024/04/12 03:23:57;;;;;;;5.63;2.93;;;14.50;99.90;;;;;;5391856;26;20455;-71
2024/04/12 03:26:27;;;;;;;4.90;3.23;;;14.50;99.90;;;;;;5433264;26;20330;-68
2024/04/12 03:28:59;;;;;;;3.27;2.97;;;14.50;99.90;;;;;;5399234;26;20459;-68
2024/04/12 03:31:26;;;;;;;3.87;3.17;;;14.50;99.90;;;;;;5434394;26;20463;-71
2024/04/12 03:33:54;;;;;;;5.50;2.90;;;14.50;99.90;;;;;;5428891;26;20463;-74
2024/04/12 03:41:56;;;;;;;4.50;3.27;;;14.50;99.90;;;;;;5433263;26;20519;-74
2024/04/12 03:44:25;;;;;;;3.20;2.90;;;14.50;99.90;;;;;;5433090;26;20799;-72
2024/04/12 03:46:52;;;;;;;4.67;3.63;;;14.50;99.90;;;;;;5431898;26;20515;-71
2024/04/12 03:49:21;;;;;;;4.37;3.53;;;14.40;99.90;;;;;;5436828;26;20463;-74
2024/04/12 03:51:49;;;;;;;4.77;3.40;;;14.40;99.90;;;;;;5430510;26;20589;-74
2024/04/12 03:54:19;;;;;;;5.13;3.70;;;14.40;99.90;;;;;;5407085;26;20455;-68
2024/04/12 03:56:49;;;;;;;4.57;4.03;;;14.40;99.90;;;;;;5431940;26;20504;-68
2024/04/12 03:59:23;;;;;;;4.70;3.37;;;14.30;99.90;;;;;;5434528;26;20463;-74
2024/04/12 04:01:50;;;;;;;3.67;3.37;;;14.30;99.90;;;;;;5432115;26;20459;-74
2024/04/12 04:04:17;;;;;;;4.97;4.47;;;14.40;99.90;;;;;;5434562;26;20459;-71
2024/04/12 04:06:54;;;;;;;6.13;4.17;;;14.40;99.90;;;;;;5430228;26;20455;-76
2024/04/12 04:09:25;;;;;;;5.90;4.80;;;14.40;99.90;;;;;;5433069;26;20807;-70
2024/04/12 04:11:55;;;;;;;6.07;4.40;;;14.40;99.90;;;;;;5434593;26;20523;-68
2024/04/12 04:14:28;;;;;;;4.90;4.33;;;14.40;99.90;;;;;;5440498;26;20912;-70
2024/04/12 04:17:00;;;;;;;8.20;4.70;;;14.30;99.90;;;;;;5438267;26;21087;-71
2024/04/12 04:19:31;;;;;;;5.53;4.83;;;14.30;99.90;;;;;;5438618;26;20440;-72
2024/04/12 04:24:56;;;;;;;6.33;5.73;;;14.30;99.90;;;;;;5432318;26;21200;-74
2024/04/12 04:27:23;;;;;;;6.03;5.43;;;14.30;99.90;;;;;;5434325;26;20447;-70
2024/04/12 04:29:52;;;;;;;6.80;5.83;;;14.30;99.90;;;;;;5438239;26;20293;-74
2024/04/12 04:32:21;;;;;;;6.20;5.50;;;14.30;99.90;;;;;;5435991;26;20467;-73
2024/04/12 04:35:05;;;;;;;6.20;5.63;;;14.30;99.90;;;;;;5430803;26;20471;-71
2024/04/12 04:37:34;;;;;;;8.00;7.00;;;14.30;99.90;;;;;;5391962;26;20460;-74
2024/04/12 04:40:01;;;;;;;7.47;6.33;;;14.30;99.90;;;;;;5416054;26;21458;-74
2024/04/12 04:42:27;;;;;;;7.10;5.50;;;14.30;99.90;;;;;;5436973;26;20506;-74
2024/04/12 04:44:52;;;;;;;6.60;6.00;;;14.20;99.90;;;;;;5435406;26;20522;-75
2024/04/12 04:47:18;;;;;;;6.03;5.43;;;14.20;99.90;;;;;;5439401;26;20234;-69
2024/04/12 04:49:43;;;;;;;6.13;4.90;;;14.20;99.90;;;;;;5438312;26;20334;-70
2024/04/12 04:52:09;;;;;;;10.57;6.23;;;14.20;99.90;;;;;;5393155;26;20238;-71
2024/04/12 04:54:39;;;;;;;6.10;5.50;;;14.20;99.90;;;;;;5438324;26;20264;-74
2024/04/12 04:57:06;;;;;;;6.33;5.40;;;14.20;99.90;;;;;;5438209;26;20230;-74
2024/04/12 04:59:32;;;;;;;6.67;5.00;;;14.20;99.90;;;;;;5435539;26;20504;-72
2024/04/12 05:02:01;;;;;;;6.27;5.60;;;14.20;99.90;;;;;;5436445;26;20467;-74
2024/04/12 05:04:32;;;;;;;7.40;5.30;;;14.20;99.90;;;;;;5438133;26;21028;-68
2024/04/12 05:06:58;;;;;;;5.10;4.60;;;14.20;99.90;;;;;;5402545;26;20511;-70
2024/04/12 05:09:27;;;;;;;5.87;4.73;;;14.20;99.90;;;;;;5437131;26;20451;-73
2024/04/12 05:11:54;;;;;;;5.33;4.80;;;14.20;99.90;;;;;;5429255;26;20518;-71
2024/04/12 05:17:09;;;;;;;6.10;4.50;;;14.30;99.90;;;;;;5436693;26;20483;-73
2024/04/12 05:19:43;;;;;;;5.03;4.40;;;14.20;99.90;;;;;;5437327;26;20452;-71
2024/04/12 05:22:19;;;;;;;5.87;5.27;;;14.30;99.90;;;;;;5429984;26;20589;-74
2024/04/12 05:24:46;;;;;;;7.30;4.67;;;14.30;99.90;;;;;;5437652;26;20459;-71
2024/04/12 05:27:12;;;;;;;5.67;5.10;;;14.30;99.90;;;;;;5437317;26;20566;-75
2024/04/12 05:29:40;;;;;;;6.37;5.30;;;14.30;99.90;;;;;;5364020;26;20511;-72
2024/04/12 05:32:06;;;;;;;8.57;4.80;;;14.30;99.90;;;;;;5437990;26;20471;-71
2024/04/12 05:34:34;;;;;;;5.70;4.53;;;14.30;99.90;;;;;;5435501;26;20565;-73
2024/04/12 05:37:03;;;;;;;7.40;5.07;;;14.20;99.90;;;;;;5420898;26;20499;-75
2024/04/12 05:39:35;;;;;;;10.63;6.17;;;14.20;99.90;;;;;;5405690;26;20467;-72
2024/04/12 05:42:05;;;;;;;6.93;5.10;;;14.20;99.90;;;;;;5423481;26;20596;-76
2024/04/12 05:44:34;;;;;;;8.70;6.47;;;14.20;99.90;;;;;;5407457;26;20471;-72
2024/04/12 05:47:01;;;;;;;10.20;6.67;;;14.20;99.90;;;;;;5439117;26;20463;-71
2024/04/12 05:49:30;;;;;;;7.90;7.10;;;14.20;99.90;;;;;;5439009;26;20456;-77
2024/04/12 05:52:00;;;;;;;6.50;5.90;;;14.20;99.90;;;;;;5430621;26;20507;-71
2024/04/12 05:54:33;;;;;;;8.33;7.00;;;14.30;99.90;;;;;;5423407;26;20451;-72
2024/04/12 05:56:59;;;;;;;8.80;7.70;;;14.20;99.90;;;;;;5437111;26;20515;-75
2024/04/12 05:59:25;;;;;;;9.43;7.20;;;14.20;99.90;;;;;;5401676;26;20964;-74
2024/04/12 06:01:51;;;;;;;7.87;6.63;;;14.20;99.90;;;;;;5429258;26;20354;-72
2024/04/12 06:04:23;;;;;;;7.17;6.47;;;14.20;99.90;;;;;;5436156;26;20459;-70
2024/04/12 06:06:50;;;;;;;8.20;6.57;;;14.20;99.90;;;;;;5434576;26;20467;-75
2024/04/12 06:09:20;;;;;;;10.73;7.43;;;14.30;99.90;;;;;;5402338;26;20537;-71
2024/04/12 06:11:52;;;;;;;7.87;6.80;;;14.30;99.90;;;;;;5435856;26;20475;-73
2024/04/12 06:14:21;;;;;;;8.80;7.23;;;14.30;99.90;;;;;;5429016;26;20495;-73
2024/04/12 06:16:57;;;;;;;10.20;7.30;;;14.30;99.90;;;;;;5432103;26;20471;-73
2024/04/12 06:19:26;;;;;;;9.10;8.17;;;14.20;99.90;;;;;;5434580;26;20467;-70
2024/04/12 06:21:52;;;;;;;9.27;8.30;;;14.20;99.90;;;;;;5433622;26;20602;-71
2024/04/12 06:24:29;;;;;;;10.23;7.60;;;14.20;99.90;;;;;;5432405;26;20897;-71
2024/04/12 06:26:57;;;;;;;7.20;6.23;;;14.20;99.90;;;;;;5427984;26;20467;-71
2024/04/12 06:29:26;;;;;;;7.50;6.73;;;14.20;99.90;;;;;;5431399;26;20448;-71
2024/04/12 06:31:56;;;;;;;7.13;6.43;;;14.20;99.90;;;;;;5404861;26;20515;-75
2024/04/12 06:34:22;;;;;;;8.13;7.00;;;14.20;99.90;;;;;;5437257;26;20498;-73
2024/04/12 06:36:56;;;;;;;6.33;5.73;;;14.20;99.90;;;;;;5434551;26;20936;-69
2024/04/12 06:39:26;;;;;;;7.43;5.80;;;14.20;99.90;;;;;;5435917;26;20828;-72
2024/04/12 06:41:57;;;;;;;7.17;5.80;;;14.20;99.90;;;;;;5391844;26;21171;-70
2024/04/12 06:44:24;;;;;;;7.13;6.00;;;14.20;99.90;;;;;;5431511;26;21400;-73
2024/04/12 06:46:58;;;;;;;6.93;5.60;;;14.20;99.90;;;;;;5437101;26;20572;-70
2024/04/12 06:49:27;;;;;;;6.13;4.80;;;14.20;99.90;;;;;;5437595;26;20592;-71
2024/04/12 06:52:09;;;;;;;8.13;5.17;;;14.20;99.90;;;;;;5440670;26;20454;-72
2024/04/12 06:54:44;;;;;;;5.20;4.70;;;14.20;99.90;;;;;;5435136;26;21057;-68
2024/04/12 06:57:25;;;;;;;6.47;5.87;;;14.20;99.90;;;;;;5432389;26;20834;-69
2024/04/12 06:59:54;;;;;;;6.27;4.37;;;14.20;99.90;;;;;;5427809;26;20452;-69
2024/04/12 07:02:29;;;;;;;6.43;5.10;;;14.20;99.90;;;;;;5429824;26;20467;-73
2024/04/12 07:04:59;;;;;;;5.70;5.10;;;14.20;99.90;;;;;;5430649;26;20492;-74
2024/04/12 07:07:28;;;;;;;10.73;5.40;;;14.30;99.90;;;;;;5434115;26;20514;-71
2024/04/12 07:09:58;;;;;;;9.67;5.53;;;14.30;99.90;;;;;;5434575;26;20455;-72
2024/04/12 07:12:31;;;;;;;5.83;4.70;;;14.30;99.90;;;;;;5364542;26;20874;-70
2024/04/12 07:14:56;;;;;;;9.23;5.30;;;14.30;99.90;;;;;;5425671;26;20618;-72
2024/04/12 07:17:23;;;;;;;6.83;5.53;;;14.30;99.90;;;;;;5436763;26;20463;-68
2024/04/12 07:19:57;;;;;;;8.20;5.87;;;14.30;99.90;;;;;;5435857;26;20237;-73
2024/04/12 07:22:29;;;;;;;6.80;4.97;;;14.30;99.90;;;;;;5437016;26;20504;-71
2024/04/12 07:24:57;;;;;;;7.07;5.60;;;14.40;99.90;;;;;;5435140;26;21317;-71
2024/04/12 07:27:29;;;;;;;7.27;5.30;;;14.30;99.90;;;;;;5419691;26;20464;-72
2024/04/12 07:29:59;;;;;;;6.37;5.43;;;14.40;99.90;;;;;;5425791;26;20460;-72
2024/04/12 07:32:35;;;;;;;7.17;5.50;;;14.40;99.90;;;;;;5434772;26;20519;-71
2024/04/12 07:35:09;;;;;;;5.60;5.00;;;14.50;99.90;;;;;;5431471;26;20278;-69
2024/04/12 07:37:36;;;;;;;9.33;5.23;;;14.50;99.90;;;;;;5435540;26;20509;-72
2024/04/12 07:40:24;;;;;;;9.93;5.20;;;14.60;99.90;;;;;;5432475;26;20499;-72
2024/04/12 07:42:52;;;;;;;8.03;5.67;;;14.60;99.90;;;;;;5430732;26;20507;-72
2024/04/12 07:45:25;;;;;;;6.37;4.53;;;14.60;99.90;;;;;;5396549;26;20450;-69
2024/04/12 07:48:11;;;;;;;8.57;5.10;;;14.70;99.90;;;;;;5424004;26;20443;-71
2024/04/12 07:50:39;;;;;;;6.20;5.03;;;14.70;99.90;;;;;;5434716;26;20792;-70
2024/04/12 07:58:34;;;;;;;6.60;4.90;;;14.90;99.90;;;;;;5400265;26;20511;-68
2024/04/12 08:01:09;;;;;;;5.10;4.50;;;14.90;99.90;;;;;;5431883;26;20925;-69
2024/04/12 08:03:39;;;;;;;7.30;4.97;;;15.00;99.90;;;;;;5434017;26;20519;-68
2024/04/12 08:06:36;;;;;;;4.50;4.10;;;15.00;99.90;;;;;;5433887;26;21123;-73
2024/04/12 08:09:05;;;;;;;4.97;4.47;;;15.00;99.90;;;;;;5428835;26;20505;-69
2024/04/12 08:11:35;;;;;;;5.27;4.77;;;15.10;99.90;;;;;;5429645;26;20552;-71
2024/04/12 08:14:05;;;;;;;5.27;4.77;;;15.00;99.90;;;;;;5423931;26;21666;-72
2024/04/12 08:16:46;;;;;;;7.07;5.27;;;15.10;99.90;;;;;;5429391;26;20604;-73
2024/04/12 08:19:14;;;;;;;7.23;5.43;;;15.20;99.90;;;;;;5389436;26;20584;-72
2024/04/12 08:21:41;;;;;;;4.67;4.27;;;15.20;99.90;;;;;;5429880;26;20512;-71
2024/04/12 08:24:10;;;;;;;4.43;4.03;;;15.30;99.90;;;;;;5432880;26;20548;-74
2024/04/12 08:26:45;;;;;;;4.47;4.00;;;15.40;99.90;;;;;;5438846;26;20444;-69
2024/04/12 08:29:26;;;;;;;6.37;4.83;;;15.30;99.90;;;;;;5437648;26;20473;-71
2024/04/12 08:34:42;;;;;;;5.30;4.50;;;15.40;99.90;;;;;;5438002;26;21242;-71
2024/04/12 08:37:16;;;;;;;5.07;3.97;;;15.50;99.90;;;;;;5436977;26;21016;-75
2024/04/12 08:39:43;;;;;;;6.90;4.00;;;15.50;99.90;;;;;;5437471;26;20977;-70
2024/04/12 08:42:10;;;;;;;7.50;4.53;;;15.50;99.90;;;;;;5405597;26;21194;-68
2024/04/12 08:44:37;;;;;;;6.80;4.50;;;15.50;99.90;;;;;;5438455;26;20459;-73
2024/04/12 08:50:07;;;;;;;6.33;4.97;;;15.60;99.90;;;;;;5388045;26;20505;-71
2024/04/12 08:52:43;;;;;;;5.43;4.27;;;15.70;99.90;;;;;;5436464;26;20508;-70
2024/04/12 08:55:15;;;;;;;6.03;4.37;;;15.70;99.90;;;;;;5436761;26;20473;-70
2024/04/12 08:57:41;;;;;;;5.10;4.53;;;15.70;99.90;;;;;;5437884;26;20452;-74
2024/04/12 09:00:15;;;;;;;8.70;6.40;;;15.70;99.90;;;;;;5434794;26;20515;-69
2024/04/12 09:02:48;;;;;;;6.33;5.07;;;15.80;99.90;;;;;;5437193;26;20519;-70
2024/04/12 09:05:22;;;;;;;5.63;4.83;;;15.80;99.90;;;;;;5436826;26;20459;-73
2024/04/12 09:07:58;;;;;;;8.20;5.80;;;15.90;99.90;;;;;;5436450;26;20507;-71
2024/04/12 09:10:34;;;;;;;6.37;5.30;;;16.00;99.90;;;;;;5436798;26;20844;-71
2024/04/12 09:13:08;;;;;;;7.43;5.70;;;16.00;99.90;;;;;;5406087;26;20451;-72
2024/04/12 09:15:43;;;;;;;8.40;5.70;;;15.90;99.90;;;;;;5437840;26;21114;-73
2024/04/12 09:18:25;;;;;;;6.80;6.10;;;16.00;99.90;;;;;;5437956;26;20573;-69
2024/04/12 09:21:01;;;;;;;9.07;6.60;;;16.10;99.90;;;;;;5436411;26;20464;-70
2024/04/12 09:23:33;;;;;;;7.83;6.13;;;16.10;99.90;;;;;;5439353;26;20465;-72
2024/04/12 09:26:01;;;;;;;7.10;6.03;;;16.10;99.90;;;;;;5434733;26;20515;-70
2024/04/12 09:28:32;;;;;;;6.30;5.53;;;16.20;99.90;;;;;;5437895;26;20498;-72
2024/04/12 09:33:50;;;;;;;9.90;6.20;;;16.20;99.90;;;;;;5436329;26;20608;-73
2024/04/12 09:36:38;;;;;;;8.77;6.27;;;16.20;99.90;;;;;;5437775;26;20447;-74
2024/04/12 09:39:14;;;;;;;10.10;6.40;;;16.30;99.90;;;;;;5436619;26;20463;-71
2024/04/12 09:41:56;;;;;;;6.93;6.23;;;16.30;99.90;;;;;;5436604;26;20523;-69
2024/04/12 09:44:38;;;;;;;6.93;5.67;;;16.30;99.90;;;;;;5437715;26;20496;-71
2024/04/12 10:37:23;;;;;;;12.80;6.40;;;16.90;99.90;;;;;;5432781;26;21064;-75
2024/04/12 10:39:50;;;;;;;8.53;5.30;;;17.00;99.90;;;;;;5434202;26;20571;-70
2024/04/12 10:42:25;;;;;;;7.43;5.13;;;17.00;99.90;;;;;;5431442;26;20569;-73
2024/04/12 10:44:58;;;;;;;7.00;5.30;;;17.00;99.90;;;;;;5431448;26;20451;-73
2024/04/12 10:47:28;;;;;;;9.43;5.83;;;17.00;99.90;;;;;;5434745;26;20518;-74
2024/04/12 10:49:57;;;;;;;7.40;5.40;;;17.00;99.90;;;;;;5430797;26;20507;-72
2024/04/12 10:52:31;;;;;;;7.63;5.80;;;17.10;99.90;;;;;;5433348;26;20511;-72
2024/04/12 10:55:10;;;;;;;11.63;5.63;;;17.20;99.90;;;;;;5432334;26;20524;-70
2024/04/12 10:57:40;;;;;;;7.43;5.47;;;17.20;99.90;;;;;;5431433;26;20455;-73
2024/04/12 11:00:17;;;;;;;9.07;5.63;;;17.20;99.90;;;;;;5400010;26;20459;-73
2024/04/12 11:02:47;;;;;;;6.47;5.47;;;17.30;99.90;;;;;;5432033;26;20454;-74
2024/04/12 11:07:43;;;;;;;6.90;5.47;;;17.30;99.90;;;;;;5430693;26;21006;-70
2024/04/12 11:10:23;;;;;;;7.80;6.30;;;17.40;99.90;;;;;;5430653;26;20511;-73
2024/04/12 11:12:55;;;;;;;7.77;5.20;;;17.50;99.90;;;;;;5432099;26;20463;-73
2024/04/12 11:31:55;;;;;;;5.73;5.10;;;18.20;99.90;;;;;;5429236;26;20448;-72
2024/04/12 11:34:24;;;;;;;9.03;5.77;;;18.20;99.90;;;;;;5431160;26;20467;-72
2024/04/12 11:36:53;;;;;;;7.53;5.50;;;18.30;99.90;;;;;;5429259;26;20461;-70
2024/04/12 11:39:26;;;;;;;8.47;4.80;;;18.30;99.90;;;;;;5435878;26;20468;-72
2024/04/12 11:41:55;;;;;;;5.73;4.87;;;18.30;99.90;;;;;;5427580;26;20533;-70
2024/04/12 11:44:24;;;;;;;5.53;4.93;;;18.30;99.90;;;;;;5429444;26;20455;-70
2024/04/12 11:46:50;;;;;;;7.53;6.10;;;18.40;99.90;;;;;;5388797;26;20460;-75
2024/04/12 11:49:25;;;;;;;6.63;4.53;;;18.30;99.90;;;;;;5426135;26;20856;-72
2024/04/12 11:51:58;;;;;;;5.57;4.83;;;18.30;99.90;;;;;;5431090;26;20454;-76
2024/04/12 11:54:28;;;;;;;6.40;5.37;;;18.40;99.90;;;;;;5393293;26;20475;-71
2024/04/12 11:57:01;;;;;;;7.10;5.00;;;18.40;99.90;;;;;;5432143;26;20461;-72
2024/04/12 11:59:31;;;;;;;5.80;4.33;;;18.50;99.90;;;;;;5406003;26;20517;-71
2024/04/12 12:02:01;;;;;;;5.93;5.10;;;18.50;99.90;;;;;;5394419;26;21277;-73
2024/04/12 12:04:28;;;;;;;6.73;5.20;;;18.60;99.90;;;;;;5430936;26;20801;-68
2024/04/12 12:07:04;;;;;;;9.17;5.33;;;18.60;99.90;;;;;;5426070;26;21145;-71
2024/04/12 12:09:31;;;;;;;5.23;4.30;;;18.60;99.90;;;;;;5425691;26;20577;-74
2024/04/12 12:12:00;;;;;;;6.67;5.00;;;18.70;99.90;;;;;;5421301;26;20509;-69
2024/04/12 12:14:26;;;;;;;4.83;4.43;;;18.80;99.90;;;;;;5432447;26;20466;-71
2024/04/12 12:16:53;;;;;;;6.57;5.87;;;18.90;99.90;;;;;;5427765;26;20573;-70
2024/04/12 12:19:19;;;;;;;5.50;4.80;;;18.90;99.90;;;;;;5435697;26;20463;-69
2024/04/12 12:21:49;;;;;;;6.60;4.27;;;18.90;99.90;;;;;;5402582;26;20548;-73
2024/04/12 12:24:15;;;;;;;7.30;4.77;;;19.00;99.90;;;;;;5434763;26;21239;-73
2024/04/12 12:26:41;;;;;;;7.63;4.17;;;19.10;99.90;;;;;;5433112;26;21036;-73
2024/04/12 12:29:06;;;;;;;6.63;4.73;;;19.20;99.90;;;;;;5425556;26;20826;-73
2024/04/12 12:31:33;;;;;;;4.53;3.60;;;19.30;99.90;;;;;;5433074;26;20561;-73
2024/04/12 12:33:59;;;;;;;6.07;4.50;;;19.30;99.90;;;;;;5429764;26;20234;-71
2024/04/12 12:36:28;;;;;;;12.00;4.40;;;19.30;99.90;;;;;;5389914;26;20472;-70
2024/04/12 12:38:54;;;;;;;8.67;5.13;;;19.30;99.90;;;;;;5430275;26;20275;-71
2024/04/12 12:41:20;;;;;;;5.77;4.23;;;19.30;99.90;;;;;;5419364;26;20521;-68
2024/04/12 12:43:47;;;;;;;5.33;4.17;;;19.30;99.90;;;;;;5436991;26;21461;-70
2024/04/12 12:46:16;;;;;;;9.60;4.40;;;19.10;99.90;;;;;;5431664;26;20470;-73
2024/04/12 12:48:42;;;;;;;7.93;4.13;;;19.00;99.90;;;;;;5430745;26;20463;-71
2024/04/12 12:51:09;;;;;;;4.83;3.80;;;19.00;99.90;;;;;;5433762;26;20519;-70
2024/04/12 12:53:38;;;;;;;3.50;3.20;;;18.90;99.90;;;;;;5434133;26;20569;-71
2024/04/12 12:56:07;;;;;;;8.80;3.40;;;18.80;99.90;;;;;;5430550;26;20455;-72
2024/04/12 12:58:40;;;;;;;7.77;4.23;;;18.80;99.90;;;;;;5433921;26;21082;-74
2024/04/12 13:01:09;;;;;;;7.27;3.57;;;18.80;99.90;;;;;;5415433;26;20504;-74
2024/04/12 13:03:38;;;;;;;5.60;2.90;;;18.70;99.90;;;;;;5434488;26;20451;-71
2024/04/12 13:06:07;;;;;;;5.47;3.20;;;18.70;99.90;;;;;;5424920;26;20523;-69
2024/04/12 13:08:34;;;;;;;4.83;2.53;;;18.70;99.90;;;;;;5430569;26;20463;-73
2024/04/12 13:11:00;;;;;;;3.40;2.33;;;18.70;99.90;;;;;;5431335;26;20524;-69
2024/04/12 13:13:26;;;;;;;4.03;2.53;;;18.80;99.90;;;;;;5387555;26;20455;-75
2024/04/12 13:15:56;;;;;;;3.77;2.27;;;18.90;99.90;;;;;;5421727;26;20242;-71
2024/04/12 13:18:23;;;;;;;5.00;3.07;;;18.90;99.90;;;;;;5398117;26;20449;-69
2024/04/12 13:20:51;;;;;;;2.83;2.40;;;18.90;99.90;;;;;;5430860;26;21455;-68
2024/04/12 13:23:17;;;;;;;3.67;2.10;;;19.00;99.90;;;;;;5434802;26;20501;-72
2024/04/12 13:25:44;;;;;;;4.00;2.00;;;19.00;99.90;;;;;;5435965;26;20598;-68
2024/04/12 13:28:12;;;;;;;11.33;2.80;;;19.00;99.90;;;;;;5437660;26;20467;-71
2024/04/12 13:30:41;;;;;;;5.50;2.80;;;19.00;99.90;;;;;;5435631;26;21081;-73
2024/04/12 13:33:10;;;;;;;4.77;3.03;;;19.10;99.90;;;;;;5393999;26;20574;-68
2024/04/12 13:35:40;;;;;;;3.00;2.70;;;19.20;99.90;;;;;;5436294;26;20544;-75
2024/04/12 13:38:14;;;;;;;2.90;2.40;;;19.20;99.90;;;;;;5435015;26;21162;-71
2024/04/12 13:40:42;;;;;;;3.50;2.63;;;19.30;99.90;;;;;;5435596;26;20451;-73
2024/04/12 13:43:15;;;;;;;2.03;1.83;;;19.50;99.90;;;;;;5434589;26;20518;-70
2024/04/12 13:51:20;;;;;;;3.63;2.30;;;19.50;99.90;;;;;;5436998;26;20507;-71
2024/04/12 13:53:50;;;;;;;3.63;2.33;;;19.50;99.90;;;;;;5432630;26;20504;-71
2024/04/12 13:56:20;;;;;;;3.63;2.07;;;19.40;99.90;;;;;;5435587;26;20451;-71
2024/04/12 13:58:49;;;;;;;3.43;2.20;;;19.40;99.90;;;;;;5438991;26;20451;-73
2024/04/12 14:01:24;;;;;;;3.17;2.30;;;19.40;99.90;;;;;;5437300;26;20996;-71
2024/04/12 14:04:03;;;;;;;4.57;2.67;;;19.40;99.90;;;;;;5436189;26;20459;-76
2024/04/12 14:06:34;;;;;;;3.73;2.40;;;19.40;99.90;;;;;;5435828;26;20512;-70
2024/04/12 14:09:08;;;;;;;4.07;2.57;;;19.30;99.90;;;;;;5436528;26;20451;-71
2024/04/12 14:11:34;;;;;;;2.57;2.37;;;19.30;99.90;;;;;;5436582;26;21119;-72
2024/04/12 14:14:03;;;;;;;4.20;3.37;;;19.30;99.90;;;;;;5437890;26;20512;-73
2024/04/12 14:16:32;;;;;;;3.83;3.03;;;19.30;99.90;;;;;;5437823;26;20512;-71
2024/04/12 14:19:01;;;;;;;5.10;3.20;;;19.20;99.90;;;;;;5434027;26;20503;-69
2024/04/12 14:21:27;;;;;;;5.67;2.60;;;19.20;99.90;;;;;;5435030;26;21489;-71
2024/04/12 14:23:53;;;;;;;3.43;2.47;;;19.10;99.90;;;;;;5436878;26;20467;-74
2024/04/12 14:26:19;;;;;;;4.80;2.80;;;19.20;99.90;;;;;;5437342;26;20491;-68
2024/04/12 14:28:45;;;;;;;3.93;2.20;;;19.20;99.90;;;;;;5435573;26;20511;-74
2024/04/12 14:31:11;;;;;;;7.33;3.50;;;19.30;99.90;;;;;;5436810;26;21277;-71
2024/04/12 14:33:38;;;;;;;3.47;2.50;;;19.40;99.90;;;;;;5438577;26;20282;-69
2024/04/12 14:36:05;;;;;;;4.77;2.90;;;19.40;99.90;;;;;;5434649;26;20233;-73
2024/04/12 14:38:31;;;;;;;5.60;2.90;;;19.30;99.90;;;;;;5435853;26;20502;-71
2024/04/12 14:41:07;;;;;;;2.97;2.77;;;19.30;99.90;;;;;;5432282;26;20577;-70
2024/04/12 14:43:35;;;;;;;3.97;2.73;;;19.40;99.90;;;;;;5438143;26;20451;-72